Time;durP1;ratioP1;P1;durP2;ratioP2;P2;SDS_P1;SDS_P2;PMS_P1;PMS_P2;Temp;Humidity;BMP_temperature;BMP_pressure;BME280_temperature;BME280_humidity;BME280_pressure;Samples;Min_cycle;Max_cycle;Signal;HPM_P1;HPM_P2
2023/12/18 00:01:03;;;;;;;;;3.00;2.50;;;;;7.90;85.17;101498.41;5098837;28;9483;-56
2023/12/18 00:03:30;;;;;;;;;1.00;1.00;;;;;7.83;85.46;101504.91;5098918;28;8818;-55
2023/12/18 00:05:59;;;;;;;;;1.00;1.00;;;;;7.79;85.45;101511.25;5098721;28;8834;-57
2023/12/18 00:08:27;;;;;;;;;3.50;3.00;;;;;7.73;85.55;101525.63;5098841;28;8837;-57
2023/12/18 00:10:55;;;;;;;;;1.00;1.00;;;;;7.66;85.60;101520.63;5098041;28;8841;-56
2023/12/18 00:13:21;;;;;;;;;1.00;1.00;;;;;7.58;85.79;101521.91;5098647;28;8961;-57
2023/12/18 00:15:49;;;;;;;;;0.00;0.00;;;;;7.51;85.76;101517.78;5098597;28;8903;-55
2023/12/18 00:18:17;;;;;;;;;3.00;3.00;;;;;7.43;86.11;101519.91;5098560;28;8837;-55
2023/12/18 00:20:45;;;;;;;;;2.00;2.00;;;;;7.37;86.18;101509.56;5098518;28;8814;-58
2023/12/18 00:23:13;;;;;;;;;2.50;2.50;;;;;7.32;86.29;101511.50;5098716;28;8830;-57
2023/12/18 00:25:42;;;;;;;;;4.00;1.00;;;;;7.28;86.56;101507.28;5098696;28;8874;-56
2023/12/18 00:28:10;;;;;;;;;1.00;1.00;;;;;7.26;86.47;101514.41;5097265;28;8826;-56
2023/12/18 00:30:38;;;;;;;;;3.00;1.00;;;;;7.23;86.29;101520.72;5101607;28;8814;-58
2023/12/18 00:33:06;;;;;;;;;4.00;4.00;;;;;7.21;86.75;101513.75;5098313;28;9511;-57
2023/12/18 00:35:34;;;;;;;;;0.50;0.00;;;;;7.18;86.48;101506.78;5098749;28;8826;-57
2023/12/18 00:38:02;;;;;;;;;2.00;2.00;;;;;7.18;86.65;101505.91;5096552;28;8826;-55
2023/12/18 00:40:30;;;;;;;;;3.00;1.50;;;;;7.19;86.71;101502.38;5098206;28;8834;-55
2023/12/18 00:42:58;;;;;;;;;1.00;1.00;;;;;7.21;86.01;101501.34;5098278;28;8814;-56
2023/12/18 00:45:25;;;;;;;;;2.50;2.00;;;;;7.25;86.22;101502.09;5098430;28;8953;-56
2023/12/18 00:47:53;;;;;;;;;0.50;0.50;;;;;7.26;86.47;101503.81;5098389;28;8988;-56
2023/12/18 00:50:21;;;;;;;;;1.50;1.50;;;;;7.28;85.92;101504.63;5098302;28;8822;-55
2023/12/18 00:52:49;;;;;;;;;2.00;2.00;;;;;7.29;86.25;101511.66;5098175;28;8846;-57
2023/12/18 00:55:17;;;;;;;;;2.50;2.00;;;;;7.31;86.08;101512.44;5098264;28;8857;-56
2023/12/18 00:57:45;;;;;;;;;1.00;1.00;;;;;7.31;85.99;101517.75;5097354;28;8844;-55
2023/12/18 01:00:19;;;;;;;;;0.75;0.75;;;;;7.30;86.05;101521.31;5097570;28;9520;-57
2023/12/18 01:02:47;;;;;;;;;2.00;1.00;;;;;7.27;86.23;101511.72;5097665;28;8825;-56
2023/12/18 01:05:15;;;;;;;;;2.50;2.50;;;;;7.27;85.60;101500.28;5097918;28;8821;-57
2023/12/18 01:07:43;;;;;;;;;2.00;2.00;;;;;7.27;86.01;101484.38;5096885;28;8864;-58
2023/12/18 01:10:11;;;;;;;;;2.50;1.00;;;;;7.27;86.15;101492.31;5097195;28;8814;-55
2023/12/18 01:12:38;;;;;;;;;1.00;1.00;;;;;7.27;85.81;101479.06;5097901;28;8850;-55
2023/12/18 01:15:06;;;;;;;;;0.00;0.00;;;;;7.27;85.71;101476.44;5097594;28;8837;-58
2023/12/18 01:17:34;;;;;;;;;3.00;2.50;;;;;7.27;85.71;101471.13;5097701;28;8838;-57
2023/12/18 01:20:04;;;;;;;;;1.00;1.00;;;;;7.26;85.87;101483.50;5097462;28;8830;-55
2023/12/18 01:22:32;;;;;;;;;1.00;1.00;;;;;7.25;85.39;101481.78;5097092;28;8838;-57
2023/12/18 01:24:59;;;;;;;;;0.75;0.75;;;;;7.24;85.97;101479.19;5096748;28;8861;-57
2023/12/18 01:27:27;;;;;;;;;2.50;2.50;;;;;7.21;85.63;101490.75;5096306;28;8912;-55
2023/12/18 01:29:55;;;;;;;;;1.50;1.00;;;;;7.19;86.04;101483.84;5096761;28;8822;-57
2023/12/18 01:32:23;;;;;;;;;3.00;3.00;;;;;7.21;85.83;101485.47;5096999;28;8848;-57
2023/12/18 01:34:51;;;;;;;;;2.00;1.00;;;;;7.22;85.72;101481.03;5097254;28;8830;-55
2023/12/18 01:37:19;;;;;;;;;3.00;2.50;;;;;7.21;85.55;101497.88;5096838;28;8912;-57
2023/12/18 01:39:46;;;;;;;;;2.00;2.00;;;;;7.16;85.44;101486.59;5097428;28;8956;-55
2023/12/18 01:42:14;;;;;;;;;2.25;2.25;;;;;7.16;85.54;101489.22;5097038;28;9616;-56
2023/12/18 01:44:42;;;;;;;;;3.25;3.00;;;;;7.16;85.25;101491.88;5097079;28;8837;-57
2023/12/18 01:47:09;;;;;;;;;0.25;0.25;;;;;7.12;85.56;101499.09;5097067;28;8836;-55
2023/12/18 01:49:37;;;;;;;;;3.00;3.00;;;;;7.07;85.59;101497.56;5097017;28;8810;-58
2023/12/18 01:52:05;;;;;;;;;1.00;1.00;;;;;7.01;85.73;101511.03;5097086;28;8818;-57
2023/12/18 01:54:32;;;;;;;;;1.00;1.00;;;;;6.96;85.57;101510.38;5096751;28;8826;-58
2023/12/18 01:57:00;;;;;;;;;1.00;1.00;;;;;6.95;85.83;101513.94;5095777;28;8868;-57
2023/12/18 01:59:28;;;;;;;;;4.00;4.00;;;;;6.94;85.59;101523.69;5095257;28;8829;-56
2023/12/18 02:01:56;;;;;;;;;2.00;2.00;;;;;6.90;85.61;101521.22;5095519;28;8891;-56
2023/12/18 02:04:24;;;;;;;;;4.50;3.75;;;;;6.87;85.54;101530.13;5096275;28;8849;-55
2023/12/18 02:06:51;;;;;;;;;2.00;1.00;;;;;6.82;85.48;101524.16;5096217;28;8907;-57
2023/12/18 02:09:19;;;;;;;;;2.00;2.00;;;;;6.77;85.71;101525.25;5095479;28;9464;-56
2023/12/18 02:11:47;;;;;;;;;2.50;2.50;;;;;6.73;85.67;101526.28;5095345;28;8845;-56
2023/12/18 02:14:15;;;;;;;;;3.00;2.50;;;;;6.71;86.09;101510.47;5096442;28;8822;-56
2023/12/18 02:16:42;;;;;;;;;1.00;1.00;;;;;6.69;85.58;101517.59;5096461;28;8822;-55
2023/12/18 02:19:10;;;;;;;;;3.00;3.00;;;;;6.68;86.00;101515.03;5096115;28;8826;-56
2023/12/18 02:21:38;;;;;;;;;1.00;1.00;;;;;6.65;85.53;101510.72;5096690;28;8814;-56
2023/12/18 02:24:06;;;;;;;;;3.50;3.25;;;;;6.64;85.88;101524.00;5096024;28;8828;-57
2023/12/18 02:26:34;;;;;;;;;3.75;3.75;;;;;6.63;85.79;101522.28;5096287;28;8850;-57
2023/12/18 02:29:02;;;;;;;;;3.00;1.50;;;;;6.61;85.66;101524.97;5095321;28;8814;-57
2023/12/18 02:31:29;;;;;;;;;0.00;0.00;;;;;6.60;85.42;101512.66;5096295;28;8840;-57
2023/12/18 02:33:58;;;;;;;;;3.00;1.00;;;;;6.57;85.75;101523.38;5096152;28;8822;-56
2023/12/18 02:36:26;;;;;;;;;2.00;2.00;;;;;6.55;85.76;101513.75;5096276;28;8834;-58
2023/12/18 02:38:54;;;;;;;;;1.50;1.50;;;;;6.51;85.61;101507.72;5096067;28;8898;-57
2023/12/18 02:41:21;;;;;;;;;3.00;2.00;;;;;6.51;85.55;101498.94;5096282;28;8865;-57
2023/12/18 02:43:49;;;;;;;;;1.00;1.00;;;;;6.50;85.50;101503.34;5096064;28;8830;-56
2023/12/18 02:46:17;;;;;;;;;0.00;0.00;;;;;6.50;85.66;101498.06;5096425;28;8825;-56
2023/12/18 02:48:45;;;;;;;;;3.00;3.00;;;;;6.49;85.32;101498.13;5096380;28;8860;-55
2023/12/18 02:51:12;;;;;;;;;0.00;0.00;;;;;6.48;85.30;101501.69;5095948;28;8822;-58
2023/12/18 02:53:40;;;;;;;;;4.00;3.50;;;;;6.46;85.35;101506.19;5096016;28;8834;-55
2023/12/18 02:56:08;;;;;;;;;1.50;1.50;;;;;6.40;85.37;101503.75;5096159;28;8829;-59
2023/12/18 02:58:36;;;;;;;;;0.00;0.00;;;;;6.34;85.65;101502.22;5095319;28;8826;-55
2023/12/18 03:01:03;;;;;;;;;1.00;1.00;;;;;6.31;85.72;101512.03;5096489;28;8950;-57
2023/12/18 03:03:31;;;;;;;;;0.50;0.50;;;;;6.27;85.77;101508.66;5095859;28;8922;-55
2023/12/18 03:05:59;;;;;;;;;1.00;1.00;;;;;6.27;85.57;101508.66;5095803;28;8830;-55
2023/12/18 03:08:27;;;;;;;;;2.75;2.50;;;;;6.26;85.44;101506.94;5096052;28;9511;-54
2023/12/18 03:10:54;;;;;;;;;3.75;3.75;;;;;6.26;85.97;101501.63;5095668;28;8869;-58
2023/12/18 03:13:22;;;;;;;;;1.00;1.00;;;;;6.25;85.54;101506.97;5096127;28;8822;-57
2023/12/18 03:15:50;;;;;;;;;1.00;1.00;;;;;6.21;85.55;101500.94;5095724;28;8834;-57
2023/12/18 03:18:18;;;;;;;;;3.00;3.00;;;;;6.21;85.81;101497.44;5095728;28;8818;-57
2023/12/18 03:20:45;;;;;;;;;1.50;1.00;;;;;6.18;85.23;101490.47;5096147;28;8810;-57
2023/12/18 03:23:13;;;;;;;;;1.00;1.00;;;;;6.14;85.85;101493.31;5098826;28;8964;-55
2023/12/18 03:25:41;;;;;;;;;3.00;3.00;;;;;6.09;85.19;101490.81;5099197;28;8822;-58
2023/12/18 03:28:09;;;;;;;;;1.80;1.00;;;;;6.04;85.79;101486.59;5098888;28;8834;-58
2023/12/18 03:30:37;;;;;;;;;1.00;1.00;;;;;5.99;85.33;101496.50;5099551;28;8830;-57
2023/12/18 03:33:04;;;;;;;;;1.00;1.00;;;;;5.93;85.61;101492.28;5099402;28;8911;-55
2023/12/18 03:35:32;;;;;;;;;3.00;3.00;;;;;5.90;85.70;101502.09;5099100;28;8837;-57
2023/12/18 03:38:00;;;;;;;;;1.40;1.40;;;;;5.88;86.08;101503.94;5098708;28;8822;-56
2023/12/18 03:40:28;;;;;;;;;1.00;1.00;;;;;5.84;85.65;101497.91;5098538;28;9498;-57
2023/12/18 03:42:55;;;;;;;;;1.00;1.00;;;;;5.82;85.81;101480.34;5099211;28;8838;-57
2023/12/18 03:45:23;;;;;;;;;4.40;3.00;;;;;5.85;86.12;101482.91;5099455;28;8844;-57
2023/12/18 03:47:51;;;;;;;;;1.00;1.00;;;;;5.83;85.74;101469.75;5099383;28;8818;-56
2023/12/18 03:50:18;;;;;;;;;3.00;1.80;;;;;5.82;85.35;101459.22;5099710;28;8925;-57
2023/12/18 03:52:46;;;;;;;;;1.00;1.00;;;;;5.79;85.62;101456.66;5099611;28;9496;-56
2023/12/18 03:55:14;;;;;;;;;1.00;1.00;;;;;5.76;85.27;101452.34;5099101;28;8833;-56
2023/12/18 03:57:42;;;;;;;;;1.00;1.00;;;;;5.73;85.29;101456.88;5098687;28;8822;-57
2023/12/18 04:00:10;;;;;;;;;1.00;1.00;;;;;5.68;85.75;101457.03;5098568;28;8830;-58
2023/12/18 04:02:37;;;;;;;;;1.00;1.00;;;;;5.65;85.58;101457.16;5098598;28;8868;-58
2023/12/18 04:05:05;;;;;;;;;1.00;0.60;;;;;5.64;86.05;101465.13;5098672;28;8822;-58
2023/12/18 04:07:33;;;;;;;;;1.00;1.00;;;;;5.58;86.06;101457.41;5098850;28;8907;-57
2023/12/18 04:10:01;;;;;;;;;1.00;1.00;;;;;5.52;85.44;101449.69;5098575;28;8828;-55
2023/12/18 04:12:28;;;;;;;;;1.00;1.00;;;;;5.50;85.79;101443.63;5099131;28;8988;-57
2023/12/18 04:14:56;;;;;;;;;3.00;3.00;;;;;5.51;85.75;101453.25;5098336;28;8822;-55
2023/12/18 04:17:24;;;;;;;;;2.60;2.60;;;;;5.49;85.54;101453.34;5098454;28;8840;-57
2023/12/18 04:19:52;;;;;;;;;1.00;1.00;;;;;5.49;85.59;101447.19;5098887;28;8810;-55
2023/12/18 04:22:19;;;;;;;;;3.20;3.00;;;;;5.47;85.33;101449.03;5098782;28;8838;-58
2023/12/18 04:24:47;;;;;;;;;4.80;3.80;;;;;5.42;85.54;101443.03;5098883;28;9537;-57
2023/12/18 04:27:15;;;;;;;;;1.00;1.00;;;;;5.38;85.61;101444.06;5097563;28;8811;-55
2023/12/18 04:29:42;;;;;;;;;1.40;0.40;;;;;5.35;85.74;101444.16;5078080;28;8828;-55
2023/12/18 04:32:10;;;;;;;;;3.00;2.20;;;;;5.35;85.54;101449.44;5078129;28;8830;-56
2023/12/18 04:34:39;;;;;;;;;3.40;3.00;;;;;5.35;85.45;101457.34;5077263;28;8863;-57
2023/12/18 04:37:07;;;;;;;;;1.00;1.00;;;;;5.32;85.50;101460.09;5078137;28;8812;-57
2023/12/18 04:39:37;;;;;;;;;2.20;2.20;;;;;5.30;85.84;101467.19;5078440;28;9571;-57
2023/12/18 04:42:05;;;;;;;;;1.00;1.00;;;;;5.27;85.61;101465.56;5077852;28;8824;-56
2023/12/18 04:44:33;;;;;;;;;3.00;3.00;;;;;5.25;85.68;101475.28;5077914;28;8832;-57
2023/12/18 04:47:01;;;;;;;;;1.00;1.00;;;;;5.22;85.77;101478.03;5077800;28;8844;-57
2023/12/18 04:49:28;;;;;;;;;3.00;3.00;;;;;5.19;85.66;101469.34;5077484;28;8840;-56
2023/12/18 04:51:56;;;;;;;;;4.00;3.00;;;;;5.14;85.31;101472.16;5077435;28;8844;-54
2023/12/18 04:54:24;;;;;;;;;4.00;4.00;;;;;5.09;86.07;101473.22;5077326;28;8815;-57
2023/12/18 04:56:52;;;;;;;;;4.00;1.80;;;;;5.01;86.06;101472.59;5077985;28;9556;-57
2023/12/18 04:59:20;;;;;;;;;6.00;3.00;;;;;4.93;85.93;101467.56;5094484;28;8856;-58
2023/12/18 05:01:48;;;;;;;;;2.60;2.20;;;;;4.89;85.86;101470.34;5097380;28;8822;-56
2023/12/18 05:04:16;;;;;;;;;1.40;1.40;;;;;4.85;86.36;101476.63;5097815;28;8840;-55
2023/12/18 05:06:44;;;;;;;;;1.40;1.40;;;;;4.79;86.45;101479.47;5097277;28;8830;-57
2023/12/18 05:09:11;;;;;;;;;2.80;2.80;;;;;4.72;86.05;101476.16;5097437;28;8968;-55
2023/12/18 05:11:39;;;;;;;;;1.80;1.80;;;;;4.68;86.27;101473.66;5097434;28;8884;-57
2023/12/18 05:14:08;;;;;;;;;3.60;3.40;;;;;4.64;86.23;101480.81;5097276;28;8846;-57
2023/12/18 05:16:35;;;;;;;;;1.80;1.80;;;;;4.61;86.38;101488.81;5096087;28;8854;-56
2023/12/18 05:19:04;;;;;;;;;3.00;3.00;;;;;4.55;86.43;101483.72;5096086;28;8833;-55
2023/12/18 05:21:31;;;;;;;;;3.00;1.00;;;;;4.49;86.14;101491.81;5105500;28;8818;-55
2023/12/18 05:23:59;;;;;;;;;1.00;1.00;;;;;4.44;86.45;101487.59;5097996;28;8814;-55
2023/12/18 05:26:27;;;;;;;;;3.40;3.20;;;;;4.38;86.61;101482.50;5111577;28;9525;-55
2023/12/18 05:28:55;;;;;;;;;1.40;1.40;;;;;4.37;86.53;101479.03;5116722;28;8974;-55
2023/12/18 05:31:23;;;;;;;;;2.20;1.80;;;;;4.34;86.12;101480.88;5097056;28;8973;-56
2023/12/18 05:33:50;;;;;;;;;3.60;3.20;;;;;4.37;86.54;101478.16;5097482;28;9791;-57
2023/12/18 05:36:18;;;;;;;;;3.80;3.80;;;;;4.41;86.54;101477.16;5091872;28;8870;-57
2023/12/18 05:38:46;;;;;;;;;1.00;1.00;;;;;4.45;86.73;101473.50;5096868;28;8805;-58
2023/12/18 05:41:14;;;;;;;;;4.00;4.00;;;;;4.46;86.29;101462.03;5095613;28;8870;-56
2023/12/18 05:43:42;;;;;;;;;4.40;4.40;;;;;4.47;86.45;101471.69;5096394;28;8844;-58
2023/12/18 05:46:09;;;;;;;;;4.00;4.00;;;;;4.48;86.54;101471.63;5096300;28;9502;-58
2023/12/18 05:48:37;;;;;;;;;1.40;1.40;;;;;4.49;86.33;101477.78;5095719;28;8818;-56
2023/12/18 05:51:05;;;;;;;;;4.00;3.80;;;;;4.50;85.82;101482.16;5096233;28;8902;-58
2023/12/18 05:53:33;;;;;;;;;4.00;3.80;;;;;4.51;86.04;101478.59;5096579;28;8830;-57
2023/12/18 05:56:00;;;;;;;;;3.60;1.80;;;;;4.50;86.13;101483.00;5096200;28;8842;-57
2023/12/18 05:58:28;;;;;;;;;3.20;3.20;;;;;4.47;86.35;101476.94;5095874;28;8861;-55
2023/12/18 06:00:56;;;;;;;;;6.00;4.40;;;;;4.45;85.88;101473.50;5095693;28;8834;-56
2023/12/18 06:03:27;;;;;;;;;3.40;3.00;;;;;4.43;85.80;101464.78;5095711;28;8834;-57
2023/12/18 06:05:55;;;;;;;;;1.80;1.00;;;;;4.42;86.03;101457.78;5095537;28;8806;-56
2023/12/18 06:08:22;;;;;;;;;2.60;1.40;;;;;4.41;86.04;101463.97;5094957;28;8817;-58
2023/12/18 06:10:50;;;;;;;;;5.60;5.20;;;;;4.41;86.24;101462.19;5094828;28;8863;-56
2023/12/18 06:13:18;;;;;;;;;4.00;1.00;;;;;4.38;86.18;101466.69;5095345;28;8859;-56
2023/12/18 06:15:46;;;;;;;;;3.40;3.40;;;;;4.37;85.93;101462.31;5095473;28;8842;-55
2023/12/18 06:18:13;;;;;;;;;0.00;0.00;;;;;4.35;86.25;101462.38;5095318;28;8868;-55
2023/12/18 06:20:41;;;;;;;;;4.00;3.40;;;;;4.35;86.25;101466.78;5095036;28;8848;-55
2023/12/18 06:23:09;;;;;;;;;3.80;3.80;;;;;4.33;86.25;101458.06;5094956;28;8860;-58
2023/12/18 06:25:37;;;;;;;;;3.00;3.00;;;;;4.32;85.89;101458.94;5094113;28;8822;-56
2023/12/18 06:28:05;;;;;;;;;3.40;3.40;;;;;4.30;85.63;101458.16;5094673;28;8895;-57
2023/12/18 06:30:32;;;;;;;;;6.00;4.00;;;;;4.28;86.16;101452.91;5095141;28;8845;-58
2023/12/18 06:33:00;;;;;;;;;2.60;1.40;;;;;4.28;86.12;101460.81;5094882;28;9773;-58
2023/12/18 06:35:28;;;;;;;;;3.80;3.20;;;;;4.27;85.95;101458.25;5093306;28;8841;-58
2023/12/18 06:37:56;;;;;;;;;3.00;3.00;;;;;4.25;86.31;101460.91;5093723;28;8833;-57
2023/12/18 06:40:24;;;;;;;;;3.00;3.00;;;;;4.23;86.39;101469.78;5094138;28;8840;-58
2023/12/18 06:42:52;;;;;;;;;4.40;3.80;;;;;4.21;86.04;101475.13;5093787;28;8830;-57
2023/12/18 06:45:20;;;;;;;;;4.00;4.00;;;;;4.18;86.03;101463.81;5093433;28;8973;-57
2023/12/18 06:47:48;;;;;;;;;6.00;4.00;;;;;4.16;85.93;101481.41;5093594;28;8826;-56
2023/12/18 06:50:16;;;;;;;;;1.40;1.00;;;;;4.16;86.29;101484.03;5093323;28;8831;-56
2023/12/18 06:52:43;;;;;;;;;3.20;3.20;;;;;4.13;85.97;101482.34;5094023;28;8860;-57
2023/12/18 06:55:12;;;;;;;;;6.00;5.60;;;;;4.07;85.85;101485.19;5094072;28;8960;-56
2023/12/18 06:57:39;;;;;;;;;3.00;3.00;;;;;4.01;85.95;101488.00;5096054;28;8873;-56
2023/12/18 07:00:07;;;;;;;;;4.00;3.60;;;;;3.97;86.51;101490.75;5097699;28;8876;-58
2023/12/18 07:02:36;;;;;;;;;3.80;3.80;;;;;3.95;86.04;101492.59;5098955;28;8829;-57
2023/12/18 07:05:06;;;;;;;;;6.00;6.00;;;;;3.93;86.38;101487.34;5101145;28;8846;-57
2023/12/18 07:07:35;;;;;;;;;5.60;3.40;;;;;3.94;86.50;101480.28;5101484;28;9754;-55
2023/12/18 07:10:03;;;;;;;;;1.00;1.00;;;;;3.96;86.24;101475.88;5098041;28;8838;-57
2023/12/18 07:12:31;;;;;;;;;6.20;4.80;;;;;3.97;86.53;101481.06;5097538;28;8952;-57
2023/12/18 07:14:59;;;;;;;;;1.00;1.00;;;;;3.99;86.28;101488.94;5097640;28;8852;-58
2023/12/18 07:17:27;;;;;;;;;3.20;3.20;;;;;4.01;86.19;101488.00;5096637;28;8836;-57
2023/12/18 07:19:55;;;;;;;;;5.20;3.60;;;;;4.04;86.11;101481.78;5097364;28;8856;-58
2023/12/18 07:22:22;;;;;;;;;0.40;0.40;;;;;4.05;86.31;101494.88;5097315;28;8837;-58
2023/12/18 07:24:50;;;;;;;;;4.80;4.00;;;;;4.08;86.75;101494.81;5097465;28;8960;-58
2023/12/18 07:27:18;;;;;;;;;7.60;5.80;;;;;4.12;86.34;101500.88;5097049;28;8837;-58
2023/12/18 07:29:48;;;;;;;;;4.40;4.00;;;;;4.14;86.42;101506.97;5097233;28;8852;-58
2023/12/18 07:32:15;;;;;;;;;5.20;4.00;;;;;4.15;86.04;101508.69;5098175;28;8854;-56
2023/12/18 07:34:43;;;;;;;;;5.20;4.00;;;;;4.17;86.02;101505.09;5096927;28;9603;-57
2023/12/18 07:37:11;;;;;;;;;4.00;4.00;;;;;4.21;85.83;101505.88;5096927;28;8840;-56
2023/12/18 07:39:39;;;;;;;;;6.20;6.20;;;;;4.25;85.34;101510.16;5097838;28;8853;-56
2023/12/18 07:42:08;;;;;;;;;8.60;7.80;;;;;4.29;86.17;101519.69;5097639;28;8866;-58
2023/12/18 07:44:35;;;;;;;;;7.40;7.00;;;;;4.32;85.57;101522.22;5098938;28;8841;-58
2023/12/18 07:47:06;;;;;;;;;6.00;4.80;;;;;4.33;85.93;101513.44;5098817;28;8829;-56
2023/12/18 07:49:35;;;;;;;;;10.00;5.60;;;;;4.34;85.61;101517.81;5098005;28;8833;-57
2023/12/18 07:52:03;;;;;;;;;6.00;5.20;;;;;4.36;85.73;101511.59;5098385;28;8833;-56
2023/12/18 07:54:32;;;;;;;;;7.00;7.00;;;;;4.39;85.80;101521.16;5097979;28;8975;-56
2023/12/18 07:57:00;;;;;;;;;6.60;6.40;;;;;4.41;85.29;101511.44;5097700;28;8837;-58
2023/12/18 07:59:27;;;;;;;;;4.00;4.00;;;;;4.44;85.11;101512.22;5097653;28;8872;-55
2023/12/18 08:01:55;;;;;;;;;5.60;4.00;;;;;4.47;85.53;101509.47;5097353;28;8852;-58
2023/12/18 08:04:23;;;;;;;;;6.00;4.80;;;;;4.49;85.19;101512.91;5096774;28;8825;-57
2023/12/18 08:06:53;;;;;;;;;8.80;8.60;;;;;4.51;85.40;101519.03;5097115;28;8853;-58
2023/12/18 08:09:21;;;;;;;;;3.20;3.20;;;;;4.55;85.52;101514.50;5097335;28;8861;-56
2023/12/18 08:11:49;;;;;;;;;9.40;8.60;;;;;4.57;84.99;101520.63;5097136;28;8864;-58
2023/12/18 08:14:17;;;;;;;;;8.00;6.40;;;;;4.60;85.15;101508.22;5097334;28;8838;-58
2023/12/18 08:16:44;;;;;;;;;6.80;6.80;;;;;4.67;84.94;101511.50;5096178;28;8838;-59
2023/12/18 08:19:12;;;;;;;;;7.40;7.00;;;;;4.72;85.20;101510.44;5096773;28;8838;-58
2023/12/18 08:21:40;;;;;;;;;9.20;7.00;;;;;4.78;84.89;101507.63;5096282;28;8829;-59
2023/12/18 08:24:08;;;;;;;;;9.00;9.00;;;;;4.82;85.33;101503.13;5096126;28;8821;-58
2023/12/18 08:26:36;;;;;;;;;9.60;8.20;;;;;4.86;85.21;101502.13;5095463;28;8818;-57
2023/12/18 08:29:04;;;;;;;;;8.20;8.00;;;;;4.88;85.26;101505.56;5095632;28;8910;-57
2023/12/18 08:31:37;;;;;;;;;8.20;7.40;;;;;4.91;84.71;101501.06;5095445;28;8818;-57
2023/12/18 08:34:06;;;;;;;;;9.00;9.00;;;;;4.93;84.54;101499.22;5096027;28;9496;-56
2023/12/18 08:36:36;;;;;;;;;6.60;6.60;;;;;4.97;84.51;101492.97;5095589;28;8866;-58
2023/12/18 08:39:08;;;;;;;;;10.80;8.60;;;;;5.05;85.04;101495.34;5095458;28;8853;-58
2023/12/18 08:41:37;;;;;;;;;9.00;9.00;;;;;5.13;84.50;101491.53;5096629;28;8858;-56
2023/12/18 08:44:04;;;;;;;;;7.80;7.00;;;;;5.20;84.07;101492.19;5097084;28;8830;-58
2023/12/18 08:46:33;;;;;;;;;5.60;4.00;;;;;5.28;84.51;101487.53;5096498;28;8968;-56
2023/12/18 08:49:00;;;;;;;;;7.40;7.00;;;;;5.36;84.12;101489.00;5096289;28;8965;-57
2023/12/18 08:51:28;;;;;;;;;10.00;7.00;;;;;5.47;84.22;101497.41;5095144;28;8833;-56
2023/12/18 08:53:56;;;;;;;;;12.40;9.60;;;;;5.53;84.26;101485.78;5095531;28;8908;-58
2023/12/18 08:56:25;;;;;;;;;10.80;10.00;;;;;5.60;84.04;101493.44;5094890;28;8952;-56
2023/12/18 08:58:55;;;;;;;;;11.80;10.20;;;;;5.65;83.80;101480.94;5094790;28;8902;-58
2023/12/18 09:01:23;;;;;;;;;7.60;7.60;;;;;5.67;83.76;101488.78;5094924;28;8822;-58
2023/12/18 09:03:51;;;;;;;;;12.80;10.80;;;;;5.70;84.03;101476.34;5094902;28;9000;-58
2023/12/18 09:06:19;;;;;;;;;9.80;9.80;;;;;5.77;83.97;101475.22;5095755;28;8825;-55
2023/12/18 09:08:47;;;;;;;;;8.60;8.60;;;;;5.86;83.55;101468.78;5095796;28;8841;-58
2023/12/18 09:11:16;;;;;;;;;11.20;9.20;;;;;5.94;83.39;101472.00;5095401;28;8846;-58
2023/12/18 09:13:43;;;;;;;;;14.20;12.80;;;;;6.04;82.90;101474.25;5095803;28;8884;-58
2023/12/18 09:16:12;;;;;;;;;7.80;6.80;;;;;6.14;83.00;101480.91;5094942;28;8942;-56
2023/12/18 09:18:41;;;;;;;;;11.60;11.40;;;;;6.23;82.85;101464.72;5094598;28;8861;-55
2023/12/18 09:21:09;;;;;;;;;10.20;9.40;;;;;6.34;82.79;101461.66;5094586;28;8841;-56
2023/12/18 09:23:37;;;;;;;;;6.00;4.80;;;;;6.44;82.03;101468.34;5094024;28;8836;-56
2023/12/18 09:26:05;;;;;;;;;8.20;7.80;;;;;6.51;81.85;101469.84;5094768;28;8851;-58
2023/12/18 09:28:33;;;;;;;;;8.60;7.00;;;;;6.56;82.83;101475.78;5095258;28;8849;-58
2023/12/18 09:31:01;;;;;;;;;15.00;12.20;;;;;6.57;82.35;101467.81;5095507;28;9627;-57
2023/12/18 09:33:28;;;;;;;;;10.60;9.00;;;;;6.58;82.16;101476.59;5095273;28;8845;-56
2023/12/18 09:35:57;;;;;;;;;12.40;11.80;;;;;6.61;82.25;101472.03;5094684;28;8856;-56
2023/12/18 09:38:26;;;;;;;;;11.20;11.20;;;;;6.68;81.65;101472.69;5094654;28;9910;-58
2023/12/18 09:40:54;;;;;;;;;12.80;12.80;;;;;6.71;81.61;101477.84;5094672;28;8853;-56
2023/12/18 09:43:22;;;;;;;;;8.60;8.60;;;;;6.70;81.82;101460.25;5095349;28;8868;-56
2023/12/18 09:45:49;;;;;;;;;12.40;10.00;;;;;6.73;81.61;101453.03;5095953;28;8844;-56
2023/12/18 09:48:17;;;;;;;;;13.40;12.00;;;;;6.75;82.06;101448.53;5095383;28;9007;-55
2023/12/18 09:50:46;;;;;;;;;10.80;9.20;;;;;6.76;81.86;101439.66;5095115;28;8836;-58
2023/12/18 09:53:16;;;;;;;;;6.60;4.80;;;;;6.82;81.62;101439.44;5095796;28;8833;-56
2023/12/18 09:55:44;;;;;;;;;11.00;11.00;;;;;6.96;81.67;101433.59;5095616;28;8882;-58
2023/12/18 09:58:13;;;;;;;;;9.40;9.40;;;;;7.12;80.96;101429.38;5095305;28;8903;-56
2023/12/18 10:00:41;;;;;;;;;9.00;8.40;;;;;7.24;80.70;101434.16;5094559;28;8910;-56
2023/12/18 10:03:09;;;;;;;;;10.80;10.00;;;;;7.33;80.77;101441.69;5093207;28;8833;-56
2023/12/18 10:05:37;;;;;;;;;12.80;11.60;;;;;7.49;79.94;101429.53;5093449;28;8947;-58
2023/12/18 10:08:05;;;;;;;;;10.40;9.40;;;;;7.62;79.74;101434.25;5091581;28;8857;-57
2023/12/18 10:10:33;;;;;;;;;7.00;6.50;;;;;7.69;79.61;101425.94;5092899;28;8848;-59
2023/12/18 10:13:03;;;;;;;;;6.50;6.00;;;;;7.78;79.67;101414.94;5093544;28;9843;-58
2023/12/18 10:15:32;;;;;;;;;11.50;10.50;;;;;7.78;79.88;101409.66;5093250;28;8899;-56
2023/12/18 10:18:00;;;;;;;;;8.00;7.75;;;;;7.68;80.13;101419.84;5094481;28;8906;-56
2023/12/18 10:20:28;;;;;;;;;12.00;10.00;;;;;7.64;80.28;101418.28;5095346;28;9544;-57
2023/12/18 10:22:56;;;;;;;;;9.25;9.00;;;;;7.65;80.40;101417.34;5095486;28;8838;-56
2023/12/18 10:25:24;;;;;;;;;15.25;8.75;;;;;7.65;80.41;101422.66;5095511;28;8826;-56
2023/12/18 10:27:52;;;;;;;;;4.25;3.25;;;;;7.71;80.19;101417.91;5094293;28;8888;-57
2023/12/18 10:30:25;;;;;;;;;6.50;6.00;;;;;7.96;79.92;101414.09;5094458;28;8842;-56
2023/12/18 10:32:54;;;;;;;;;8.00;6.75;;;;;8.34;78.88;101407.91;5093537;28;8976;-58
2023/12/18 10:35:22;;;;;;;;;11.60;11.20;;;;;8.69;78.74;101409.75;5094750;28;8834;-58
2023/12/18 10:37:49;;;;;;;;;11.50;11.50;;;;;8.90;77.68;101406.03;5094231;28;8842;-57
2023/12/18 10:40:20;;;;;;;;;13.25;10.50;;;;;9.07;77.37;101411.38;5094820;28;8825;-58
2023/12/18 10:42:48;;;;;;;;;6.00;4.50;;;;;9.29;77.95;101414.69;5094934;28;8833;-56
2023/12/18 10:45:16;;;;;;;;;12.00;10.50;;;;;9.58;77.18;101405.19;5095018;28;8822;-57
2023/12/18 10:47:44;;;;;;;;;5.25;5.25;;;;;9.84;76.92;101402.00;5094945;28;9506;-55
2023/12/18 10:50:12;;;;;;;;;7.25;6.00;;;;;9.81;76.67;101399.53;5094208;28;8836;-56
2023/12/18 10:52:40;;;;;;;;;4.00;4.00;;;;;9.75;77.21;101395.41;5094798;28;8822;-56
2023/12/18 10:55:10;;;;;;;;;9.50;9.50;;;;;9.70;77.40;101394.78;5094658;28;8826;-59
2023/12/18 10:57:38;;;;;;;;;13.50;9.75;;;;;9.60;78.08;101404.19;5093462;28;8846;-55
2023/12/18 11:00:08;;;;;;;;;3.50;3.50;;;;;9.46;78.76;101401.38;5093568;28;8829;-56
2023/12/18 11:02:36;;;;;;;;;9.50;7.50;;;;;9.34;78.94;101404.66;5093840;28;8845;-57
2023/12/18 11:05:04;;;;;;;;;4.75;4.00;;;;;9.40;78.41;101388.41;5094051;28;8849;-57
2023/12/18 11:07:32;;;;;;;;;6.50;6.25;;;;;9.48;78.53;101399.50;5094056;28;8833;-57
2023/12/18 11:10:00;;;;;;;;;7.33;7.33;;;;;9.56;77.43;101399.94;5093948;28;8837;-58
2023/12/18 11:12:28;;;;;;;;;9.25;9.00;;;;;9.62;77.76;101382.81;5093350;28;8884;-59
2023/12/18 11:14:58;;;;;;;;;9.00;7.00;;;;;9.68;78.16;101378.03;5093264;28;8821;-58
2023/12/18 11:17:26;;;;;;;;;11.00;7.00;;;;;9.78;77.71;101359.81;5092404;28;8902;-58
2023/12/18 11:19:54;;;;;;;;;8.50;7.75;;;;;9.71;77.89;101359.25;5092922;28;8841;-58
2023/12/18 11:22:23;;;;;;;;;6.75;6.50;;;;;9.61;77.77;101366.00;5093417;28;8992;-57
2023/12/18 11:24:51;;;;;;;;;9.00;8.00;;;;;9.60;77.20;101361.63;5093241;28;8861;-57
2023/12/18 11:27:19;;;;;;;;;6.75;6.75;;;;;9.68;76.56;101348.78;5093707;28;8825;-59
2023/12/18 11:29:48;;;;;;;;;9.50;8.50;;;;;9.72;76.59;101345.00;5092339;28;8829;-56
2023/12/18 11:32:16;;;;;;;;;9.00;7.00;;;;;9.74;76.27;101347.59;5092470;28;8841;-56
2023/12/18 11:34:44;;;;;;;;;9.50;7.00;;;;;9.76;76.22;101335.94;5092181;28;8957;-57
2023/12/18 11:37:12;;;;;;;;;6.75;6.75;;;;;9.71;76.42;101343.28;5092733;28;8825;-59
2023/12/18 11:39:40;;;;;;;;;5.25;5.25;;;;;9.71;76.80;101337.97;5091720;28;8825;-56
2023/12/18 11:42:10;;;;;;;;;7.00;6.75;;;;;9.85;76.21;101330.09;5093111;28;8853;-58